Time;durP1;ratioP1;P1;durP2;ratioP2;P2;SDS_P1;SDS_P2;PMS_P1;PMS_P2;Temp;Humidity;BMP_temperature;BMP_pressure;BME280_temperature;BME280_humidity;BME280_pressure;Samples;Min_cycle;Max_cycle;Signal;HPM_P1;HPM_P2
2021/04/19 00:01:23;;;;;;;;;;;6.00;99.90;;;;;;5071082;28;19909;-72
2021/04/19 00:03:48;;;;;;;;;;;6.00;99.90;;;;;;5070715;28;19915;-72
2021/04/19 00:06:14;;;;;;;;;;;5.90;99.90;;;;;;5069878;28;19908;-72
2021/04/19 00:08:39;;;;;;;;;;;5.90;99.90;;;;;;5071214;28;19912;-71
2021/04/19 00:11:05;;;;;;;;;;;5.90;99.90;;;;;;5071052;28;20195;-72
2021/04/19 00:13:30;;;;;;;;;;;5.80;99.90;;;;;;5070934;28;19931;-72
2021/04/19 00:15:56;;;;;;;;;;;5.90;99.90;;;;;;5069976;28;19955;-72
2021/04/19 00:18:21;;;;;;;;;;;5.90;99.90;;;;;;5062757;28;19912;-72
2021/04/19 00:20:47;;;;;;;;;;;5.90;99.90;;;;;;5070726;28;19908;-72
2021/04/19 00:23:12;;;;;;;;;;;5.80;99.90;;;;;;5070565;28;19952;-72
2021/04/19 00:25:38;;;;;;;;;;;5.80;99.90;;;;;;5070331;28;20351;-72
2021/04/19 00:28:03;;;;;;;;;;;5.80;99.90;;;;;;5070490;28;19908;-72
2021/04/19 00:30:29;;;;;;;;;;;5.70;99.90;;;;;;5070939;28;19909;-72
2021/04/19 00:32:54;;;;;;;;;;;5.60;99.90;;;;;;5070363;28;19966;-72
2021/04/19 00:35:20;;;;;;;;;;;5.60;99.90;;;;;;5070635;28;20008;-72
2021/04/19 00:37:46;;;;;;;;;;;5.50;99.90;;;;;;5069463;28;19916;-71
2021/04/19 00:40:15;;;;;;;;;;;5.50;99.90;;;;;;5070671;28;19908;-72
2021/04/19 00:42:41;;;;;;;;;;;5.40;99.90;;;;;;5070584;28;19916;-72
2021/04/19 00:45:08;;;;;;;;;;;5.30;99.90;;;;;;5070650;28;20244;-72
2021/04/19 00:47:34;;;;;;;;;;;5.20;99.90;;;;;;5061590;28;19909;-72
2021/04/19 00:50:00;;;;;;;;;;;5.20;99.90;;;;;;5070337;28;20454;-72
2021/04/19 00:52:26;;;;;;;;;;;5.00;99.90;;;;;;5070314;28;20015;-72
2021/04/19 00:54:52;;;;;;;;;;;4.90;99.90;;;;;;5070326;28;19908;-72
2021/04/19 00:57:17;;;;;;;;;;;4.80;99.90;;;;;;5069561;28;19908;-72
2021/04/19 00:59:42;;;;;;;;;;;4.70;99.90;;;;;;5070333;28;19919;-71
2021/04/19 01:02:08;;;;;;;;;;;4.70;99.90;;;;;;5071032;28;19912;-72
2021/04/19 01:04:34;;;;;;;;;;;4.60;99.90;;;;;;5074058;28;19991;-72
2021/04/19 01:06:59;;;;;;;;;;;4.60;99.90;;;;;;5072632;28;19966;-72
2021/04/19 01:09:25;;;;;;;;;;;4.50;99.90;;;;;;5073822;28;20354;-71
2021/04/19 01:11:51;;;;;;;;;;;4.50;99.90;;;;;;5073912;28;19908;-72
2021/04/19 01:14:16;;;;;;;;;;;4.50;99.90;;;;;;5073757;28;19916;-72
2021/04/19 01:16:42;;;;;;;;;;;4.50;99.90;;;;;;5069841;28;19966;-72
2021/04/19 01:19:07;;;;;;;;;;;4.40;99.90;;;;;;5068990;28;19916;-72
2021/04/19 01:21:33;;;;;;;;;;;4.30;99.90;;;;;;5073371;28;19931;-72
2021/04/19 01:23:58;;;;;;;;;;;4.30;99.90;;;;;;5073606;28;19940;-72
2021/04/19 01:26:24;;;;;;;;;;;4.30;99.90;;;;;;5072896;28;19917;-71
2021/04/19 01:28:50;;;;;;;;;;;4.20;99.90;;;;;;5072211;28;19958;-71
2021/04/19 01:31:16;;;;;;;;;;;4.20;99.90;;;;;;5069111;28;19912;-72
2021/04/19 01:33:41;;;;;;;;;;;4.20;99.90;;;;;;5073372;28;20288;-72
2021/04/19 01:36:07;;;;;;;;;;;4.20;99.90;;;;;;5072093;28;20387;-71
2021/04/19 01:38:32;;;;;;;;;;;4.10;99.90;;;;;;5073212;28;19954;-72
2021/04/19 01:40:58;;;;;;;;;;;4.10;99.90;;;;;;5073325;28;19913;-72
2021/04/19 01:43:23;;;;;;;;;;;4.10;99.90;;;;;;5073228;28;19916;-72
2021/04/19 01:45:49;;;;;;;;;;;4.20;99.90;;;;;;5071009;28;19916;-71
2021/04/19 01:48:15;;;;;;;;;;;4.20;99.90;;;;;;5064543;28;19908;-71
2021/04/19 01:50:41;;;;;;;;;;;4.20;99.90;;;;;;5073370;28;19914;-72
2021/04/19 01:53:07;;;;;;;;;;;4.20;99.90;;;;;;5072898;28;20294;-71
2021/04/19 01:55:34;;;;;;;;;;;4.20;99.90;;;;;;5072721;28;20365;-72
2021/04/19 01:58:06;;;;;;;;;;;4.20;99.90;;;;;;5072309;28;19913;-72
2021/04/19 02:00:33;;;;;;;;;;;4.30;99.90;;;;;;5073044;28;19944;-72
2021/04/19 02:02:58;;;;;;;;;;;4.30;99.90;;;;;;5072546;28;19977;-72
2021/04/19 02:05:28;;;;;;;;;;;4.30;99.90;;;;;;5072639;28;20672;-72
2021/04/19 02:07:57;;;;;;;;;;;4.30;99.90;;;;;;5071851;28;19916;-72
2021/04/19 02:10:23;;;;;;;;;;;4.30;99.90;;;;;;5072704;28;19909;-72
2021/04/19 02:12:57;;;;;;;;;;;4.30;99.90;;;;;;5072330;28;20428;-72
2021/04/19 02:15:52;;;;;;;;;;;4.40;99.90;;;;;;5072577;28;19931;-72
2021/04/19 02:18:20;;;;;;;;;;;4.40;99.90;;;;;;5063761;28;19919;-72
2021/04/19 02:20:48;;;;;;;;;;;4.40;99.90;;;;;;5072426;28;20400;-71
2021/04/19 02:23:17;;;;;;;;;;;4.50;99.90;;;;;;5072416;28;19908;-72
2021/04/19 02:25:43;;;;;;;;;;;4.50;99.90;;;;;;5071337;28;19992;-73
2021/04/19 02:28:18;;;;;;;;;;;4.50;99.90;;;;;;5072245;28;19947;-71
2021/04/19 02:30:46;;;;;;;;;;;4.50;99.90;;;;;;5072506;28;19979;-72
2021/04/19 02:33:14;;;;;;;;;;;4.60;99.90;;;;;;5071931;28;19932;-72
2021/04/19 02:35:41;;;;;;;;;;;4.70;99.90;;;;;;5070822;28;19921;-72
2021/04/19 02:38:08;;;;;;;;;;;4.70;99.90;;;;;;5072072;28;19913;-72
2021/04/19 02:40:35;;;;;;;;;;;4.70;99.90;;;;;;5072135;28;19909;-72
2021/04/19 02:43:01;;;;;;;;;;;4.70;99.90;;;;;;5071998;28;20047;-72
2021/04/19 02:45:27;;;;;;;;;;;4.70;99.90;;;;;;5070722;28;20285;-72
2021/04/19 02:47:53;;;;;;;;;;;4.70;99.90;;;;;;5063105;28;19912;-72
2021/04/19 02:50:20;;;;;;;;;;;4.70;99.90;;;;;;5071616;28;19909;-71
2021/04/19 02:52:46;;;;;;;;;;;4.70;99.90;;;;;;5071905;28;19912;-71
2021/04/19 02:55:13;;;;;;;;;;;4.70;99.90;;;;;;5071740;28;20396;-72
2021/04/19 02:57:47;;;;;;;;;;;4.70;99.90;;;;;;5070634;28;19916;-72
2021/04/19 03:00:13;;;;;;;;;;;4.80;99.90;;;;;;5071687;28;20410;-72
2021/04/19 03:02:39;;;;;;;;;;;4.80;99.90;;;;;;5071407;28;19913;-72
2021/04/19 03:05:06;;;;;;;;;;;4.80;99.90;;;;;;5071531;28;19938;-71
2021/04/19 03:07:37;;;;;;;;;;;4.90;99.90;;;;;;5070441;28;19913;-72
2021/04/19 03:10:07;;;;;;;;;;;5.00;99.90;;;;;;5071454;28;19908;-72
2021/04/19 03:12:34;;;;;;;;;;;5.00;99.90;;;;;;5071439;28;20237;-72
2021/04/19 03:15:07;;;;;;;;;;;5.10;99.90;;;;;;5071646;28;19951;-72
2021/04/19 03:17:34;;;;;;;;;;;5.10;99.90;;;;;;5062499;28;20365;-71
2021/04/19 03:20:17;;;;;;;;;;;5.10;99.90;;;;;;5069510;28;20031;-72
2021/04/19 03:22:44;;;;;;;;;;;5.10;99.90;;;;;;5071448;28;20285;-72
2021/04/19 03:25:10;;;;;;;;;;;5.20;99.90;;;;;;5070543;28;20420;-72
2021/04/19 03:27:36;;;;;;;;;;;5.20;99.90;;;;;;5070380;28;19966;-72
2021/04/19 03:30:03;;;;;;;;;;;5.20;99.90;;;;;;5071182;28;19908;-72
2021/04/19 03:32:32;;;;;;;;;;;5.20;99.90;;;;;;5071155;28;20266;-72
2021/04/19 03:34:58;;;;;;;;;;;5.20;99.90;;;;;;5070880;28;19951;-72
2021/04/19 03:37:25;;;;;;;;;;;5.30;99.90;;;;;;5070302;28;19978;-72
2021/04/19 03:40:02;;;;;;;;;;;5.30;99.90;;;;;;5071224;28;20324;-72
2021/04/19 03:42:28;;;;;;;;;;;5.30;99.90;;;;;;5070963;28;19935;-72
2021/04/19 03:44:54;;;;;;;;;;;5.30;99.90;;;;;;5071157;28;20349;-72
2021/04/19 03:47:21;;;;;;;;;;;5.30;99.90;;;;;;5062789;28;19916;-72
2021/04/19 03:49:50;;;;;;;;;;;5.30;99.90;;;;;;5069357;28;19913;-71
2021/04/19 03:52:33;;;;;;;;;;;5.30;99.90;;;;;;5070826;28;19915;-72
2021/04/19 03:55:00;;;;;;;;;;;5.30;99.90;;;;;;5071152;28;20388;-72
2021/04/19 03:57:27;;;;;;;;;;;5.30;99.90;;;;;;5069904;28;19912;-72
2021/04/19 04:00:06;;;;;;;;;;;5.20;99.90;;;;;;5070827;28;19958;-72
2021/04/19 04:02:34;;;;;;;;;;;5.20;99.90;;;;;;5070895;28;19908;-71
2021/04/19 04:05:00;;;;;;;;;;;5.20;99.90;;;;;;5070656;28;19909;-72
2021/04/19 04:07:27;;;;;;;;;;;5.30;99.90;;;;;;5069755;28;19957;-72
2021/04/19 04:09:52;;;;;;;;;;;5.30;99.90;;;;;;5070823;28;19908;-72
2021/04/19 04:12:18;;;;;;;;;;;5.30;99.90;;;;;;5070528;28;19962;-72
2021/04/19 04:14:49;;;;;;;;;;;5.30;99.90;;;;;;5070834;28;19955;-72
2021/04/19 04:17:15;;;;;;;;;;;5.30;99.90;;;;;;5062244;28;20347;-72
2021/04/19 04:19:40;;;;;;;;;;;5.30;99.90;;;;;;5070162;28;20003;-72
2021/04/19 04:22:06;;;;;;;;;;;5.30;99.90;;;;;;5070797;28;20285;-72
2021/04/19 04:24:32;;;;;;;;;;;5.30;99.90;;;;;;5070507;28;20402;-72
2021/04/19 04:26:58;;;;;;;;;;;5.30;99.90;;;;;;5069542;28;20054;-71
2021/04/19 04:29:26;;;;;;;;;;;5.30;99.90;;;;;;5070772;28;20366;-72
2021/04/19 04:31:52;;;;;;;;;;;5.30;99.90;;;;;;5070742;28;19908;-72
2021/04/19 04:34:17;;;;;;;;;;;5.30;99.90;;;;;;5070521;28;20408;-72
2021/04/19 04:36:43;;;;;;;;;;;5.30;99.90;;;;;;5070897;28;19923;-72
2021/04/19 04:39:08;;;;;;;;;;;5.20;99.90;;;;;;5074428;28;19916;-72
2021/04/19 04:41:34;;;;;;;;;;;5.20;99.90;;;;;;5074510;28;20308;-72
2021/04/19 04:44:01;;;;;;;;;;;5.20;99.90;;;;;;5074211;28;20290;-73
2021/04/19 04:46:33;;;;;;;;;;;5.30;99.90;;;;;;5072320;28;19913;-72
2021/04/19 04:48:58;;;;;;;;;;;5.20;99.90;;;;;;5067787;28;19956;-72
2021/04/19 04:51:25;;;;;;;;;;;5.30;99.90;;;;;;5074119;28;19959;-72
2021/04/19 04:53:53;;;;;;;;;;;5.30;99.90;;;;;;5074148;28;19916;-72
2021/04/19 04:56:19;;;;;;;;;;;5.20;99.90;;;;;;5073174;28;20420;-72
2021/04/19 04:58:45;;;;;;;;;;;5.20;99.90;;;;;;5073898;28;20362;-72
2021/04/19 05:01:12;;;;;;;;;;;5.20;99.90;;;;;;5074026;28;19916;-72
2021/04/19 05:03:39;;;;;;;;;;;5.30;99.90;;;;;;5073587;28;19940;-72
2021/04/19 05:06:08;;;;;;;;;;;5.30;99.90;;;;;;5072708;28;19908;-72
2021/04/19 05:08:42;;;;;;;;;;;5.30;99.90;;;;;;5073519;28;19909;-72
2021/04/19 05:11:09;;;;;;;;;;;5.40;99.90;;;;;;5073808;28;19913;-73
2021/04/19 05:13:35;;;;;;;;;;;5.40;99.90;;;;;;5073741;28;19950;-72
2021/04/19 05:16:01;;;;;;;;;;;5.40;99.90;;;;;;5072738;28;19912;-72
2021/04/19 05:18:27;;;;;;;;;;;5.40;99.90;;;;;;5064634;28;20360;-72
2021/04/19 05:20:52;;;;;;;;;;;5.50;99.90;;;;;;5073498;28;19995;-72
2021/04/19 05:23:18;;;;;;;;;;;5.50;99.90;;;;;;5073434;28;20053;-71
2021/04/19 05:25:44;;;;;;;;;;;5.50;99.90;;;;;;5072535;28;20281;-72
2021/04/19 05:28:10;;;;;;;;;;;5.60;99.90;;;;;;5073483;28;19908;-72
2021/04/19 05:30:35;;;;;;;;;;;5.70;99.90;;;;;;5073502;28;20338;-72
2021/04/19 05:33:05;;;;;;;;;;;5.70;99.90;;;;;;5071854;28;19908;-71
2021/04/19 05:35:32;;;;;;;;;;;5.70;99.90;;;;;;5072974;28;19913;-71
2021/04/19 05:37:57;;;;;;;;;;;5.70;99.90;;;;;;5072636;28;19917;-72
2021/04/19 05:40:27;;;;;;;;;;;5.70;99.90;;;;;;5073373;28;19909;-71
2021/04/19 05:42:53;;;;;;;;;;;5.80;99.90;;;;;;5073261;28;19908;-71
2021/04/19 05:45:19;;;;;;;;;;;5.90;99.90;;;;;;5074304;28;19912;-72
2021/04/19 05:47:45;;;;;;;;;;;5.90;99.90;;;;;;5080775;28;20426;-72
2021/04/19 05:50:11;;;;;;;;;;;5.90;99.90;;;;;;5092491;28;19950;-73
2021/04/19 05:52:36;;;;;;;;;;;5.90;99.90;;;;;;5093212;28;19912;-72
2021/04/19 05:55:02;;;;;;;;;;;6.00;99.90;;;;;;5091945;28;19938;-72
2021/04/19 05:57:46;;;;;;;;;;;6.00;99.90;;;;;;5092014;28;20284;-72
2021/04/19 06:00:17;;;;;;;;;;;6.00;99.90;;;;;;5091107;28;19912;-72
2021/04/19 06:02:58;;;;;;;;;;;6.00;99.90;;;;;;5068174;28;19908;-72
2021/04/19 06:05:38;;;;;;;;;;;6.10;99.90;;;;;;5070597;28;19908;-72
2021/04/19 06:08:07;;;;;;;;;;;6.00;99.90;;;;;;5071936;28;19908;-71
2021/04/19 06:10:37;;;;;;;;;;;6.10;99.90;;;;;;5072621;28;19988;-72
2021/04/19 06:13:04;;;;;;;;;;;6.00;99.90;;;;;;5071998;28;19932;-71
2021/04/19 06:15:29;;;;;;;;;;;6.00;99.90;;;;;;5071060;28;19912;-72
2021/04/19 06:17:56;;;;;;;;;;;6.00;99.90;;;;;;5063836;28;19912;-72
2021/04/19 06:20:22;;;;;;;;;;;6.00;99.90;;;;;;5063630;28;19919;-72
2021/04/19 06:22:48;;;;;;;;;;;6.00;99.90;;;;;;5052149;28;19908;-71
2021/04/19 06:25:15;;;;;;;;;;;6.00;99.90;;;;;;5052268;28;19909;-72
2021/04/19 06:27:41;;;;;;;;;;;5.90;99.90;;;;;;5050810;28;20397;-72
2021/04/19 06:30:19;;;;;;;;;;;5.90;99.90;;;;;;5052168;28;20392;-72
2021/04/19 06:32:46;;;;;;;;;;;5.90;99.90;;;;;;5057647;28;20357;-71
2021/04/19 06:35:12;;;;;;;;;;;5.90;99.90;;;;;;5072767;28;19912;-72
2021/04/19 06:37:38;;;;;;;;;;;5.90;99.90;;;;;;5080044;28;19944;-71
2021/04/19 06:40:05;;;;;;;;;;;5.90;99.90;;;;;;5075655;28;19974;-71
2021/04/19 06:42:30;;;;;;;;;;;5.90;99.90;;;;;;5071669;28;19912;-71
2021/04/19 06:44:59;;;;;;;;;;;5.90;99.90;;;;;;5071857;28;19938;-71
2021/04/19 06:47:25;;;;;;;;;;;5.90;99.90;;;;;;5063079;28;19909;-72
2021/04/19 06:49:51;;;;;;;;;;;5.80;99.90;;;;;;5070876;28;19919;-72
2021/04/19 06:52:17;;;;;;;;;;;5.70;99.90;;;;;;5071217;28;19909;-72
2021/04/19 06:54:44;;;;;;;;;;;5.80;99.90;;;;;;5069525;28;19915;-72
2021/04/19 06:57:09;;;;;;;;;;;5.70;99.90;;;;;;5061583;28;20373;-71
2021/04/19 06:59:36;;;;;;;;;;;5.70;99.90;;;;;;5051210;28;19924;-71
2021/04/19 07:02:05;;;;;;;;;;;5.60;99.90;;;;;;5051142;28;19948;-72
2021/04/19 07:04:32;;;;;;;;;;;5.50;99.90;;;;;;5051390;28;19970;-72
2021/04/19 07:06:59;;;;;;;;;;;5.50;99.90;;;;;;5050544;28;19962;-72
2021/04/19 07:09:27;;;;;;;;;;;5.60;99.90;;;;;;5051700;28;20435;-71
2021/04/19 07:11:55;;;;;;;;;;;5.60;99.90;;;;;;5051103;28;20362;-71
2021/04/19 07:14:21;;;;;;;;;;;5.70;99.90;;;;;;5051364;28;19915;-71
2021/04/19 07:16:47;;;;;;;;;;;5.80;99.90;;;;;;5050264;28;19909;-73
2021/04/19 07:19:12;;;;;;;;;;;5.70;99.90;;;;;;5067012;28;19919;-71
2021/04/19 07:21:38;;;;;;;;;;;5.80;99.90;;;;;;5058960;28;19999;-71
2021/04/19 07:24:04;;;;;;;;;;;5.70;99.90;;;;;;5049823;28;19923;-71
2021/04/19 07:26:30;;;;;;;;;;;5.60;99.90;;;;;;5050397;28;19931;-71
2021/04/19 07:28:56;;;;;;;;;;;5.60;99.90;;;;;;5051664;28;19915;-71
2021/04/19 07:31:21;;;;;;;;;;;5.60;99.90;;;;;;5052625;28;20365;-72
2021/04/19 07:33:47;;;;;;;;;;;5.50;99.90;;;;;;5051429;28;19915;-71
2021/04/19 07:36:26;;;;;;;;;;;5.50;99.90;;;;;;5061406;28;19923;-71
2021/04/19 07:38:52;;;;;;;;;;;5.40;99.90;;;;;;5071061;28;19924;-71
2021/04/19 07:41:19;;;;;;;;;;;5.40;99.90;;;;;;5070135;28;21278;-71
2021/04/19 07:43:45;;;;;;;;;;;5.40;99.90;;;;;;5071081;28;19923;-71
2021/04/19 07:46:13;;;;;;;;;;;5.40;99.90;;;;;;5070158;28;19955;-71
2021/04/19 07:48:49;;;;;;;;;;;5.50;99.90;;;;;;5063049;28;19919;-72
2021/04/19 07:51:27;;;;;;;;;;;5.50;99.90;;;;;;5062786;28;19912;-71
2021/04/19 07:54:10;;;;;;;;;;;5.60;99.90;;;;;;5070934;28;20361;-71
2021/04/19 07:56:37;;;;;;;;;;;5.70;99.90;;;;;;5069977;28;19958;-72
2021/04/19 07:59:21;;;;;;;;;;;5.70;99.90;;;;;;5070973;28;19913;-71
2021/04/19 08:02:07;;;;;;;;;;;5.80;99.90;;;;;;5070698;28;19914;-72
2021/04/19 08:04:33;;;;;;;;;;;5.80;99.90;;;;;;5070484;28;19965;-71
2021/04/19 08:06:59;;;;;;;;;;;5.90;99.90;;;;;;5070297;28;20374;-72
2021/04/19 08:09:26;;;;;;;;;;;5.90;99.90;;;;;;5065336;28;19992;-71
2021/04/19 08:11:57;;;;;;;;;;;6.00;99.90;;;;;;5084329;28;19908;-71
2021/04/19 08:14:27;;;;;;;;;;;6.00;99.90;;;;;;5095383;28;20363;-72
2021/04/19 08:17:11;;;;;;;;;;;6.00;99.90;;;;;;5094795;28;19908;-71
2021/04/19 08:19:38;;;;;;;;;;;6.00;99.90;;;;;;5092374;28;19916;-71
2021/04/19 08:22:14;;;;;;;;;;;6.10;99.90;;;;;;5063594;28;19923;-71
2021/04/19 08:24:40;;;;;;;;;;;6.30;99.90;;;;;;5055236;28;20451;-72
2021/04/19 08:27:05;;;;;;;;;;;6.30;99.90;;;;;;5054072;28;20012;-71
2021/04/19 08:29:34;;;;;;;;;;;6.40;99.90;;;;;;5054607;28;19952;-72
2021/04/19 08:31:59;;;;;;;;;;;6.60;99.90;;;;;;5054221;28;19962;-72
2021/04/19 08:34:25;;;;;;;;;;;6.60;99.90;;;;;;5054029;28;20313;-72
2021/04/19 08:36:51;;;;;;;;;;;6.80;99.90;;;;;;5052797;28;20333;-71
2021/04/19 08:39:16;;;;;;;;;;;6.80;99.90;;;;;;5054378;28;19913;-71
2021/04/19 08:41:42;;;;;;;;;;;6.80;99.90;;;;;;5053957;28;19961;-72
2021/04/19 08:44:07;;;;;;;;;;;7.00;99.90;;;;;;5054228;28;19909;-72
2021/04/19 08:46:33;;;;;;;;;;;7.10;99.90;;;;;;5053123;28;19916;-71
2021/04/19 08:48:58;;;;;;;;;;;7.20;99.90;;;;;;5053849;28;19912;-71
2021/04/19 08:51:24;;;;;;;;;;;7.10;99.90;;;;;;5062999;28;20389;-71
2021/04/19 08:53:49;;;;;;;;;;;7.10;99.90;;;;;;5073923;28;19908;-71
2021/04/19 08:56:15;;;;;;;;;;;7.10;99.90;;;;;;5073158;28;19909;-71
2021/04/19 08:58:41;;;;;;;;;;;7.10;99.90;;;;;;5073798;28;19960;-71
2021/04/19 09:01:06;;;;;;;;;;;7.10;99.90;;;;;;5073616;28;20362;-71
2021/04/19 09:03:32;;;;;;;;;;;7.20;99.90;;;;;;5073854;28;19990;-71
2021/04/19 09:06:00;;;;;;;;;;;7.20;99.90;;;;;;5072514;28;19935;-72
2021/04/19 09:08:34;;;;;;;;;;;7.30;99.90;;;;;;5073624;28;19915;-71
2021/04/19 09:11:01;;;;;;;;;;;7.40;99.90;;;;;;5073598;28;19958;-70
2021/04/19 09:13:28;;;;;;;;;;;7.50;99.90;;;;;;5073704;28;19912;-72
2021/04/19 09:15:54;;;;;;;;;;;7.50;99.90;;;;;;5071056;28;20306;-72
2021/04/19 09:18:20;;;;;;;;;;;7.50;99.90;;;;;;5053106;28;19921;-72
2021/04/19 09:20:55;;;;;;;;;;;7.70;99.90;;;;;;5059534;28;19967;-72
2021/04/19 09:23:28;;;;;;;;;;;7.70;99.90;;;;;;5072154;28;19908;-71
2021/04/19 09:25:54;;;;;;;;;;;7.70;99.90;;;;;;5065159;28;19908;-73
2021/04/19 09:28:38;;;;;;;;;;;7.80;99.90;;;;;;5073217;28;19909;-72
2021/04/19 09:31:04;;;;;;;;;;;7.90;99.90;;;;;;5072879;28;19917;-72
2021/04/19 09:33:29;;;;;;;;;;;8.00;99.90;;;;;;5073395;28;20365;-74
2021/04/19 09:35:55;;;;;;;;;;;8.00;99.90;;;;;;5072495;28;20262;-72
2021/04/19 09:38:39;;;;;;;;;;;8.10;99.90;;;;;;5073163;28;19913;-72
2021/04/19 09:41:06;;;;;;;;;;;8.10;99.90;;;;;;5072763;28;19908;-72
2021/04/19 09:43:36;;;;;;;;;;;8.20;99.90;;;;;;5071738;28;20170;-72
2021/04/19 09:46:17;;;;;;;;;;;8.20;99.90;;;;;;5072270;28;19909;-72
2021/04/19 09:48:45;;;;;;;;;;;8.30;99.90;;;;;;5072897;28;20007;-72
2021/04/19 09:51:17;;;;;;;;;;;8.30;99.90;;;;;;5065513;28;19909;-71
2021/04/19 09:53:46;;;;;;;;;;;8.30;99.90;;;;;;5072812;28;19908;-71
2021/04/19 09:56:12;;;;;;;;;;;8.20;99.90;;;;;;5071874;28;19929;-72
2021/04/19 09:58:39;;;;;;;;;;;8.30;99.90;;;;;;5072639;28;19916;-72
2021/04/19 10:01:04;;;;;;;;;;;8.30;99.90;;;;;;5067016;28;19928;-74
2021/04/19 10:03:31;;;;;;;;;;;8.30;99.90;;;;;;5052429;28;19909;-72
2021/04/19 10:05:58;;;;;;;;;;;8.40;99.90;;;;;;5051766;28;20281;-72
2021/04/19 10:08:25;;;;;;;;;;;8.40;99.90;;;;;;5052878;28;19917;-72
2021/04/19 10:10:52;;;;;;;;;;;8.30;99.90;;;;;;5052015;28;19913;-72
2021/04/19 10:13:28;;;;;;;;;;;8.40;99.90;;;;;;5052398;28;19998;-72
2021/04/19 10:16:07;;;;;;;;;;;8.40;99.90;;;;;;5051709;28;20370;-72
2021/04/19 10:18:34;;;;;;;;;;;8.40;99.90;;;;;;5052265;28;19920;-72
2021/04/19 10:21:00;;;;;;;;;;;8.40;99.90;;;;;;5057678;28;19908;-72
2021/04/19 10:23:41;;;;;;;;;;;8.50;99.90;;;;;;5072116;28;19916;-73
2021/04/19 10:26:08;;;;;;;;;;;8.50;99.90;;;;;;5071250;28;19919;-74
2021/04/19 10:28:33;;;;;;;;;;;8.40;99.90;;;;;;5052551;28;19913;-73
2021/04/19 10:31:06;;;;;;;;;;;8.40;99.90;;;;;;5051749;28;19915;-73
2021/04/19 10:33:32;;;;;;;;;;;8.40;99.90;;;;;;5051708;28;19915;-72
2021/04/19 10:35:57;;;;;;;;;;;8.40;99.90;;;;;;5050508;28;19917;-74
2021/04/19 10:38:26;;;;;;;;;;;8.50;99.90;;;;;;5051793;28;19920;-72
2021/04/19 10:40:58;;;;;;;;;;;8.60;99.90;;;;;;5051605;28;19916;-72
2021/04/19 10:43:24;;;;;;;;;;;8.70;99.90;;;;;;5056784;28;20362;-72
2021/04/19 10:45:50;;;;;;;;;;;8.70;99.90;;;;;;5071004;28;19974;-71
2021/04/19 10:48:15;;;;;;;;;;;8.80;99.90;;;;;;5071601;28;20397;-71
2021/04/19 10:50:41;;;;;;;;;;;8.90;99.90;;;;;;5064406;28;19905;-71
2021/04/19 10:53:06;;;;;;;;;;;9.00;99.90;;;;;;5071426;28;19962;-72
2021/04/19 10:55:32;;;;;;;;;;;9.00;99.90;;;;;;5071279;28;19943;-71
2021/04/19 10:57:57;;;;;;;;;;;9.00;99.90;;;;;;5070805;28;19931;-72
2021/04/19 11:00:23;;;;;;;;;;;9.00;99.90;;;;;;5071244;28;19908;-72
2021/04/19 11:02:52;;;;;;;;;;;9.10;99.90;;;;;;5071265;28;19921;-73
2021/04/19 11:05:17;;;;;;;;;;;9.20;99.90;;;;;;5071351;28;19943;-72
2021/04/19 11:07:43;;;;;;;;;;;9.30;99.90;;;;;;5068785;28;20358;-72
2021/04/19 11:10:13;;;;;;;;;;;9.30;99.90;;;;;;5063228;28;19909;-72
2021/04/19 11:12:39;;;;;;;;;;;9.40;99.90;;;;;;5073210;28;19908;-72
2021/04/19 11:15:09;;;;;;;;;;;9.50;99.90;;;;;;5091695;28;19908;-72
2021/04/19 11:17:34;;;;;;;;;;;9.50;99.90;;;;;;5090512;28;20003;-72
2021/04/19 11:20:00;;;;;;;;;;;9.40;99.90;;;;;;5081864;28;20356;-72
2021/04/19 11:22:30;;;;;;;;;;;9.40;99.90;;;;;;5068533;28;19934;-72
2021/04/19 11:25:10;;;;;;;;;;;9.40;99.90;;;;;;5071104;28;19908;-72
2021/04/19 11:27:35;;;;;;;;;;;9.40;99.90;;;;;;5070161;28;19909;-72
2021/04/19 11:30:02;;;;;;;;;;;9.30;99.90;;;;;;5070945;28;19919;-72
2021/04/19 11:32:34;;;;;;;;;;;9.30;99.90;;;;;;5070698;28;20316;-72
2021/04/19 11:35:00;;;;;;;;;;;9.20;99.90;;;;;;5070867;28;19908;-74
2021/04/19 11:37:34;;;;;;;;;;;9.10;99.90;;;;;;5070236;28;19963;-72
2021/04/19 11:39:59;;;;;;;;;;;9.00;99.90;;;;;;5070767;28;20370;-72
2021/04/19 11:42:29;;;;;;;;;;;8.90;99.90;;;;;;5070363;28;19919;-72
2021/04/19 11:44:54;;;;;;;;;;;9.00;99.90;;;;;;5071137;28;19908;-72
2021/04/19 11:47:20;;;;;;;;;;;9.00;99.90;;;;;;5069363;28;20050;-72
2021/04/19 11:49:50;;;;;;;;;;;9.10;99.90;;;;;;5065884;28;19981;-73
2021/04/19 11:52:16;;;;;;;;;;;9.10;99.90;;;;;;5066830;28;19908;-72
2021/04/19 11:54:41;;;;;;;;;;;9.10;99.90;;;;;;5090266;28;19915;-72
2021/04/19 11:57:06;;;;;;;;;;;9.10;99.90;;;;;;5090035;28;20383;-72
2021/04/19 11:59:32;;;;;;;;;;;9.00;99.90;;;;;;5079385;28;19920;-73
2021/04/19 12:02:00;;;;;;;;;;;9.00;99.90;;;;;;5049988;28;20349;-72
2021/04/19 12:04:26;;;;;;;;;;;9.00;99.90;;;;;;5051855;28;19911;-72
2021/04/19 12:06:51;;;;;;;;;;;9.00;99.90;;;;;;5050226;28;19909;-72
2021/04/19 12:09:17;;;;;;;;;;;9.00;99.90;;;;;;5050397;28;20007;-72
2021/04/19 12:11:42;;;;;;;;;;;9.00;99.90;;;;;;5050898;28;19908;-72
2021/04/19 12:14:08;;;;;;;;;;;9.00;99.90;;;;;;5050982;28;19913;-72
2021/04/19 12:16:33;;;;;;;;;;;9.00;99.90;;;;;;5050340;28;19920;-72
2021/04/19 12:18:59;;;;;;;;;;;8.90;99.90;;;;;;5050523;28;19917;-73
2021/04/19 12:21:24;;;;;;;;;;;8.90;99.90;;;;;;5060173;28;20480;-72
2021/04/19 12:23:50;;;;;;;;;;;8.90;99.90;;;;;;5070285;28;19908;-72
2021/04/19 12:26:16;;;;;;;;;;;8.90;99.90;;;;;;5068348;28;19994;-71
2021/04/19 12:28:41;;;;;;;;;;;9.00;99.90;;;;;;5070757;28;19979;-72
2021/04/19 12:31:07;;;;;;;;;;;9.10;99.90;;;;;;5070482;28;20365;-73
2021/04/19 12:33:32;;;;;;;;;;;9.20;99.90;;;;;;5070888;28;20402;-71
2021/04/19 12:35:58;;;;;;;;;;;9.20;99.90;;;;;;5069600;28;19920;-72
2021/04/19 12:38:23;;;;;;;;;;;9.20;99.90;;;;;;5070150;28;20013;-72
2021/04/19 12:40:49;;;;;;;;;;;9.20;99.90;;;;;;5070346;28;19912;-72
2021/04/19 12:43:14;;;;;;;;;;;9.10;99.90;;;;;;5070635;28;20288;-73
2021/04/19 12:45:43;;;;;;;;;;;9.10;99.90;;;;;;5069348;28;20385;-72
2021/04/19 12:48:09;;;;;;;;;;;9.00;99.90;;;;;;5070438;28;20262;-72
2021/04/19 12:50:36;;;;;;;;;;;8.90;99.90;;;;;;5062952;28;20043;-73
2021/04/19 12:53:02;;;;;;;;;;;8.90;99.90;;;;;;5068601;28;20007;-72
2021/04/19 12:55:28;;;;;;;;;;;8.80;99.90;;;;;;5070564;28;20415;-72
2021/04/19 12:57:54;;;;;;;;;;;8.80;99.90;;;;;;5072072;28;19908;-72
2021/04/19 13:00:20;;;;;;;;;;;8.70;99.90;;;;;;5074161;28;19955;-72
2021/04/19 13:02:45;;;;;;;;;;;8.80;99.90;;;;;;5074123;28;19912;-72
2021/04/19 13:05:11;;;;;;;;;;;8.80;99.90;;;;;;5074295;28;20340;-72
2021/04/19 13:07:36;;;;;;;;;;;8.70;99.90;;;;;;5072592;28;19927;-72
2021/04/19 13:10:02;;;;;;;;;;;8.80;99.90;;;;;;5073849;28;19916;-72
2021/04/19 13:12:28;;;;;;;;;;;8.70;99.90;;;;;;5073239;28;19908;-72
2021/04/19 13:14:53;;;;;;;;;;;8.60;99.90;;;;;;5073646;28;20053;-72
2021/04/19 13:17:19;;;;;;;;;;;8.60;99.90;;;;;;5072726;28;20361;-71
2021/04/19 13:19:46;;;;;;;;;;;8.60;99.90;;;;;;5070648;28;19967;-72
2021/04/19 13:22:11;;;;;;;;;;;8.50;99.90;;;;;;5085306;28;19943;-72
2021/04/19 13:24:36;;;;;;;;;;;8.60;99.90;;;;;;5093251;28;20764;-72
2021/04/19 13:27:03;;;;;;;;;;;8.60;99.90;;;;;;5092683;28;19908;-72
2021/04/19 13:29:29;;;;;;;;;;;8.60;99.90;;;;;;5093644;28;20038;-73
2021/04/19 13:31:54;;;;;;;;;;;8.60;99.90;;;;;;5093203;28;19999;-73
2021/04/19 13:34:20;;;;;;;;;;;8.60;99.90;;;;;;5093595;28;19915;-72
2021/04/19 13:36:48;;;;;;;;;;;8.70;99.90;;;;;;5091560;28;20002;-72
2021/04/19 13:39:14;;;;;;;;;;;8.70;99.90;;;;;;5093817;28;19969;-72
2021/04/19 13:41:39;;;;;;;;;;;8.70;99.90;;;;;;5093045;28;20266;-72
2021/04/19 13:44:05;;;;;;;;;;;8.70;99.90;;;;;;5093436;28;19909;-72
2021/04/19 13:46:31;;;;;;;;;;;8.70;99.90;;;;;;5092263;28;19912;-72
2021/04/19 13:48:56;;;;;;;;;;;8.80;99.90;;;;;;5093014;28;20393;-72
2021/04/19 13:51:22;;;;;;;;;;;8.80;99.90;;;;;;5069268;28;19908;-76
2021/04/19 13:53:48;;;;;;;;;;;8.90;99.90;;;;;;5072788;28;19966;-72
2021/04/19 13:56:13;;;;;;;;;;;9.00;99.90;;;;;;5072154;28;19908;-72
2021/04/19 13:58:39;;;;;;;;;;;9.00;99.90;;;;;;5072734;28;19917;-73
2021/04/19 14:01:05;;;;;;;;;;;9.10;99.90;;;;;;5072972;28;19978;-72
2021/04/19 14:03:30;;;;;;;;;;;9.20;99.90;;;;;;5072666;28;20393;-73
2021/04/19 14:05:56;;;;;;;;;;;9.30;99.90;;;;;;5071155;28;19974;-75
2021/04/19 14:08:22;;;;;;;;;;;9.40;99.90;;;;;;5072267;28;20251;-74
2021/04/19 14:10:47;;;;;;;;;;;9.50;99.90;;;;;;5072038;28;19915;-72
2021/04/19 14:13:14;;;;;;;;;;;9.70;99.90;;;;;;5072652;28;19908;-72
2021/04/19 14:15:40;;;;;;;;;;;9.80;99.90;;;;;;5071745;28;20003;-73
2021/04/19 14:18:06;;;;;;;;;;;9.80;99.90;;;;;;5072488;28;19909;-72
2021/04/19 14:20:31;;;;;;;;;;;10.00;99.90;;;;;;5064815;28;20372;-72
2021/04/19 14:22:57;;;;;;;;;;;10.10;99.90;;;;;;5072212;28;19912;-72
2021/04/19 14:25:22;;;;;;;;;;;10.20;99.90;;;;;;5072358;28;19909;-76
2021/04/19 14:27:48;;;;;;;;;;;10.30;99.90;;;;;;5071505;28;19978;-72
2021/04/19 14:30:13;;;;;;;;;;;10.30;99.90;;;;;;5072187;28;19909;-72